sensor_id;sensor_type;location;lat;lon;timestamp;pressure;altitude;pressure_sealevel;temperature;humidity
45040;BME280;30778;53.574;7.770;2023-04-09T00:01:09;102743.69;;;6.78;50.76
45040;BME280;30778;53.574;7.770;2023-04-09T00:03:35;102739.38;;;6.80;51.26
45040;BME280;30778;53.574;7.770;2023-04-09T00:06:03;102741.22;;;6.98;50.69
45040;BME280;30778;53.574;7.770;2023-04-09T00:08:31;102743.84;;;7.03;50.33
45040;BME280;30778;53.574;7.770;2023-04-09T00:10:59;102744.63;;;6.93;50.30
45040;BME280;30778;53.574;7.770;2023-04-09T00:13:24;102737.69;;;6.93;50.27
45040;BME280;30778;53.574;7.770;2023-04-09T00:15:52;102738.56;;;6.90;50.32
45040;BME280;30778;53.574;7.770;2023-04-09T00:18:18;102748.13;;;6.91;50.58
45040;BME280;30778;53.574;7.770;2023-04-09T00:20:43;102744.59;;;6.85;50.25
45040;BME280;30778;53.574;7.770;2023-04-09T00:23:09;102743.69;;;6.78;50.72
45040;BME280;30778;53.574;7.770;2023-04-09T00:25:34;102742.00;;;6.85;51.03
45040;BME280;30778;53.574;7.770;2023-04-09T00:28:02;102737.66;;;6.84;50.73
45040;BME280;30778;53.574;7.770;2023-04-09T00:30:32;102737.63;;;6.79;50.75
45040;BME280;30778;53.574;7.770;2023-04-09T00:32:57;102733.28;;;6.75;50.37
45040;BME280;30778;53.574;7.770;2023-04-09T00:35:23;102726.97;;;6.39;51.37
45040;BME280;30778;53.574;7.770;2023-04-09T00:37:48;102734.75;;;6.33;51.67
45040;BME280;30778;53.574;7.770;2023-04-09T00:40:15;102733.97;;;6.48;51.66
45040;BME280;30778;53.574;7.770;2023-04-09T00:42:43;102730.53;;;6.52;51.83
45040;BME280;30778;53.574;7.770;2023-04-09T00:45:08;102725.31;;;6.50;51.33
45040;BME280;30778;53.574;7.770;2023-04-09T00:47:34;102726.34;;;6.77;50.78
45040;BME280;30778;53.574;7.770;2023-04-09T00:50:01;102721.19;;;6.83;50.31
45040;BME280;30778;53.574;7.770;2023-04-09T00:52:27;102717.72;;;6.78;50.57
45040;BME280;30778;53.574;7.770;2023-04-09T00:54:56;102715.94;;;6.71;50.84
45040;BME280;30778;53.574;7.770;2023-04-09T00:57:25;102719.38;;;6.70;50.63
45040;BME280;30778;53.574;7.770;2023-04-09T00:59:53;102721.16;;;6.71;50.71
45040;BME280;30778;53.574;7.770;2023-04-09T01:02:19;102717.66;;;6.69;51.21
45040;BME280;30778;53.574;7.770;2023-04-09T01:04:44;102720.19;;;6.61;50.81
45040;BME280;30778;53.574;7.770;2023-04-09T01:09:50;102708.09;;;6.63;51.12
45040;BME280;30778;53.574;7.770;2023-04-09T01:12:30;102719.34;;;6.64;51.25
45040;BME280;30778;53.574;7.770;2023-04-09T01:15:21;102713.31;;;6.66;51.04
45040;BME280;30778;53.574;7.770;2023-04-09T01:18:00;102714.19;;;6.70;51.13
45040;BME280;30778;53.574;7.770;2023-04-09T01:28:55;102719.44;;;6.73;50.81
45040;BME280;30778;53.574;7.770;2023-04-09T01:31:46;102728.06;;;6.72;51.11
45040;BME280;30778;53.574;7.770;2023-04-09T01:34:13;102722.88;;;6.69;51.23
45040;BME280;30778;53.574;7.770;2023-04-09T01:36:40;102713.38;;;6.76;51.22
45040;BME280;30778;53.574;7.770;2023-04-09T01:39:07;102715.09;;;6.77;51.30
45040;BME280;30778;53.574;7.770;2023-04-09T01:41:34;102714.25;;;6.78;50.98
45040;BME280;30778;53.574;7.770;2023-04-09T01:44:01;102711.63;;;6.76;50.76
45040;BME280;30778;53.574;7.770;2023-04-09T01:46:30;102709.91;;;6.78;50.98
45040;BME280;30778;53.574;7.770;2023-04-09T01:48:58;102704.75;;;6.86;51.16
45040;BME280;30778;53.574;7.770;2023-04-09T01:51:23;102709.91;;;6.81;50.65
45040;BME280;30778;53.574;7.770;2023-04-09T01:53:50;102710.81;;;6.83;50.78
45040;BME280;30778;53.574;7.770;2023-04-09T01:56:16;102707.34;;;6.84;50.91
45040;BME280;30778;53.574;7.770;2023-04-09T01:58:41;102704.69;;;6.77;50.68
45040;BME280;30778;53.574;7.770;2023-04-09T02:01:21;102712.47;;;6.72;50.88
45040;BME280;30778;53.574;7.770;2023-04-09T02:04:02;102711.59;;;6.67;50.78
45040;BME280;30778;53.574;7.770;2023-04-09T02:06:47;102712.47;;;6.69;51.01
45040;BME280;30778;53.574;7.770;2023-04-09T02:09:19;102710.72;;;6.68;51.03
45040;BME280;30778;53.574;7.770;2023-04-09T02:11:48;102714.25;;;6.76;51.14
45040;BME280;30778;53.574;7.770;2023-04-09T02:14:15;102709.84;;;6.70;51.04
45040;BME280;30778;53.574;7.770;2023-04-09T02:16:41;102703.78;;;6.68;51.01
45040;BME280;30778;53.574;7.770;2023-04-09T02:19:07;102708.13;;;6.69;51.14
45040;BME280;30778;53.574;7.770;2023-04-09T02:21:33;102706.41;;;6.70;51.22
45040;BME280;30778;53.574;7.770;2023-04-09T02:23:58;102709.03;;;6.73;51.11
45040;BME280;30778;53.574;7.770;2023-04-09T02:26:24;102707.28;;;6.72;51.07
45040;BME280;30778;53.574;7.770;2023-04-09T02:28:50;102703.84;;;6.73;51.11
45040;BME280;30778;53.574;7.770;2023-04-09T02:31:15;102702.88;;;6.60;51.02
45040;BME280;30778;53.574;7.770;2023-04-09T02:33:41;102702.88;;;6.60;51.19
45040;BME280;30778;53.574;7.770;2023-04-09T02:36:10;102697.66;;;6.56;51.32
45040;BME280;30778;53.574;7.770;2023-04-09T02:38:39;102701.97;;;6.54;51.44
45040;BME280;30778;53.574;7.770;2023-04-09T02:41:06;102698.56;;;6.58;51.70
45040;BME280;30778;53.574;7.770;2023-04-09T02:43:31;102694.16;;;6.47;51.80
45040;BME280;30778;53.574;7.770;2023-04-09T02:45:56;102703.59;;;6.39;51.76
45040;BME280;30778;53.574;7.770;2023-04-09T02:48:22;102687.13;;;6.37;52.01
45040;BME280;30778;53.574;7.770;2023-04-09T02:50:47;102688.69;;;6.17;52.53
45040;BME280;30778;53.574;7.770;2023-04-09T02:53:13;102687.03;;;6.25;52.44
45040;BME280;30778;53.574;7.770;2023-04-09T02:55:38;102693.09;;;6.24;52.67
45040;BME280;30778;53.574;7.770;2023-04-09T02:58:04;102689.69;;;6.28;52.33
45040;BME280;30778;53.574;7.770;2023-04-09T03:00:29;102688.00;;;6.36;52.68
45040;BME280;30778;53.574;7.770;2023-04-09T03:02:55;102693.13;;;6.27;52.54
45040;BME280;30778;53.574;7.770;2023-04-09T03:05:22;102682.72;;;6.25;52.81
45040;BME280;30778;53.574;7.770;2023-04-09T03:07:48;102680.22;;;6.36;52.57
45040;BME280;30778;53.574;7.770;2023-04-09T03:10:14;102674.16;;;6.37;52.43
45040;BME280;30778;53.574;7.770;2023-04-09T03:12:39;102678.53;;;6.40;52.68
45040;BME280;30778;53.574;7.770;2023-04-09T03:15:05;102682.78;;;6.35;52.54
45040;BME280;30778;53.574;7.770;2023-04-09T03:17:31;102676.78;;;6.43;52.45
45040;BME280;30778;53.574;7.770;2023-04-09T03:19:56;102674.19;;;6.40;52.66
45040;BME280;30778;53.574;7.770;2023-04-09T03:22:22;102672.44;;;6.39;52.70
45040;BME280;30778;53.574;7.770;2023-04-09T03:24:51;102666.34;;;6.34;52.64
45040;BME280;30778;53.574;7.770;2023-04-09T03:27:16;102667.28;;;6.45;52.91
45040;BME280;30778;53.574;7.770;2023-04-09T03:29:43;102656.88;;;6.42;52.84
45040;BME280;30778;53.574;7.770;2023-04-09T03:32:08;102656.84;;;6.36;52.94
45040;BME280;30778;53.574;7.770;2023-04-09T03:34:34;102657.56;;;6.21;53.25
45040;BME280;30778;53.574;7.770;2023-04-09T03:36:59;102655.13;;;6.35;52.80
45040;BME280;30778;53.574;7.770;2023-04-09T03:39:28;102650.69;;;6.22;52.91
45040;BME280;30778;53.574;7.770;2023-04-09T03:41:57;102647.16;;;6.15;53.29
45040;BME280;30778;53.574;7.770;2023-04-09T03:44:26;102648.94;;;6.22;53.20
45040;BME280;30778;53.574;7.770;2023-04-09T03:47:06;102651.56;;;6.24;53.35
45040;BME280;30778;53.574;7.770;2023-04-09T03:49:36;102649.94;;;6.35;53.08
45040;BME280;30778;53.574;7.770;2023-04-09T03:52:19;102649.09;;;6.41;52.91
45040;BME280;30778;53.574;7.770;2023-04-09T03:54:52;102652.50;;;6.32;52.82
45040;BME280;30778;53.574;7.770;2023-04-09T03:57:21;102652.44;;;6.27;53.28
45040;BME280;30778;53.574;7.770;2023-04-09T03:59:49;102644.63;;;6.24;52.96
45040;BME280;30778;53.574;7.770;2023-04-09T04:02:19;102649.03;;;6.32;53.11
45040;BME280;30778;53.574;7.770;2023-04-09T04:04:52;102650.69;;;6.22;53.59
45040;BME280;30778;53.574;7.770;2023-04-09T04:07:18;102657.59;;;6.26;53.28
45040;BME280;30778;53.574;7.770;2023-04-09T04:09:57;102659.28;;;6.18;53.44
45040;BME280;30778;53.574;7.770;2023-04-09T04:12:23;102657.59;;;6.26;53.41
45040;BME280;30778;53.574;7.770;2023-04-09T04:15:01;102660.19;;;6.23;53.21
45040;BME280;30778;53.574;7.770;2023-04-09T04:17:35;102661.03;;;6.20;53.57
45040;BME280;30778;53.574;7.770;2023-04-09T04:20:04;102663.72;;;6.33;53.26
45040;BME280;30778;53.574;7.770;2023-04-09T04:22:35;102665.34;;;6.21;53.58
45040;BME280;30778;53.574;7.770;2023-04-09T04:25:03;102668.84;;;6.25;53.58
45040;BME280;30778;53.574;7.770;2023-04-09T04:27:29;102655.13;;;6.35;53.32
45040;BME280;30778;53.574;7.770;2023-04-09T04:29:56;102660.19;;;6.20;53.70
45040;BME280;30778;53.574;7.770;2023-04-09T04:32:44;102665.38;;;6.23;53.63
45040;BME280;30778;53.574;7.770;2023-04-09T04:35:10;102662.78;;;6.26;53.32
45040;BME280;30778;53.574;7.770;2023-04-09T04:37:37;102671.56;;;6.36;53.27
45040;BME280;30778;53.574;7.770;2023-04-09T04:40:03;102667.28;;;6.42;53.26
45040;BME280;30778;53.574;7.770;2023-04-09T04:42:34;102675.09;;;6.47;52.89
45040;BME280;30778;53.574;7.770;2023-04-09T04:45:07;102673.38;;;6.52;53.27
45040;BME280;30778;53.574;7.770;2023-04-09T04:47:44;102680.31;;;6.52;53.03
45040;BME280;30778;53.574;7.770;2023-04-09T04:50:10;102681.94;;;6.37;53.06
45040;BME280;30778;53.574;7.770;2023-04-09T04:52:49;102681.06;;;6.32;53.48
45040;BME280;30778;53.574;7.770;2023-04-09T04:55:15;102684.59;;;6.40;53.44
45040;BME280;30778;53.574;7.770;2023-04-09T04:57:41;102687.19;;;6.42;53.52
45040;BME280;30778;53.574;7.770;2023-04-09T05:00:08;102675.78;;;6.26;53.31
45040;BME280;30778;53.574;7.770;2023-04-09T05:02:35;102678.28;;;6.12;53.91
45040;BME280;30778;53.574;7.770;2023-04-09T05:05:19;102673.31;;;6.38;53.43
45040;BME280;30778;53.574;7.770;2023-04-09T05:07:50;102672.47;;;6.41;53.51
45040;BME280;30778;53.574;7.770;2023-04-09T05:10:16;102673.38;;;6.50;53.12
45040;BME280;30778;53.574;7.770;2023-04-09T05:12:42;102674.22;;;6.45;53.00
45040;BME280;30778;53.574;7.770;2023-04-09T05:15:09;102677.69;;;6.45;53.27
45040;BME280;30778;53.574;7.770;2023-04-09T05:17:36;102674.25;;;6.49;52.73
45040;BME280;30778;53.574;7.770;2023-04-09T05:20:02;102672.53;;;6.48;53.12
45040;BME280;30778;53.574;7.770;2023-04-09T05:22:36;102670.66;;;6.31;53.79
45040;BME280;30778;53.574;7.770;2023-04-09T05:25:03;102672.44;;;6.39;53.63
45040;BME280;30778;53.574;7.770;2023-04-09T05:27:30;102672.47;;;6.42;53.21
45040;BME280;30778;53.574;7.770;2023-04-09T05:29:59;102672.44;;;6.36;53.41
45040;BME280;30778;53.574;7.770;2023-04-09T05:32:25;102670.78;;;6.50;53.03
45040;BME280;30778;53.574;7.770;2023-04-09T05:34:51;102672.50;;;6.50;53.25
45040;BME280;30778;53.574;7.770;2023-04-09T05:37:16;102679.47;;;6.56;53.28
45040;BME280;30778;53.574;7.770;2023-04-09T05:39:47;102681.19;;;6.57;53.14
45040;BME280;30778;53.574;7.770;2023-04-09T05:42:12;102676.03;;;6.60;52.87
45040;BME280;30778;53.574;7.770;2023-04-09T05:44:49;102678.66;;;6.66;53.05
45040;BME280;30778;53.574;7.770;2023-04-09T05:47:18;102682.06;;;6.57;53.21
45040;BME280;30778;53.574;7.770;2023-04-09T05:50:00;102679.41;;;6.43;53.30
45040;BME280;30778;53.574;7.770;2023-04-09T05:52:26;102678.56;;;6.47;53.37
45040;BME280;30778;53.574;7.770;2023-04-09T05:54:53;102673.44;;;6.63;53.16
45040;BME280;30778;53.574;7.770;2023-04-09T05:57:28;102678.66;;;6.66;52.92
45040;BME280;30778;53.574;7.770;2023-04-09T05:59:59;102681.28;;;6.69;52.98
45040;BME280;30778;53.574;7.770;2023-04-09T06:02:25;102683.88;;;6.67;52.76
45040;BME280;30778;53.574;7.770;2023-04-09T06:04:52;102690.84;;;6.76;53.08
45040;BME280;30778;53.574;7.770;2023-04-09T06:07:18;102683.94;;;6.83;52.92
45040;BME280;30778;53.574;7.770;2023-04-09T06:09:43;102682.25;;;6.93;52.73
45040;BME280;30778;53.574;7.770;2023-04-09T06:12:11;102679.69;;;6.96;52.62
45040;BME280;30778;53.574;7.770;2023-04-09T06:14:38;102681.44;;;7.03;52.71
45040;BME280;30778;53.574;7.770;2023-04-09T06:17:04;102686.59;;;6.97;52.40
45040;BME280;30778;53.574;7.770;2023-04-09T06:19:30;102679.69;;;7.00;52.07
45040;BME280;30778;53.574;7.770;2023-04-09T06:21:55;102683.97;;;6.95;52.38
45040;BME280;30778;53.574;7.770;2023-04-09T06:24:21;102685.72;;;6.95;52.48
45040;BME280;30778;53.574;7.770;2023-04-09T06:26:46;102691.81;;;6.97;52.18
45040;BME280;30778;53.574;7.770;2023-04-09T06:29:12;102680.53;;;6.96;52.31
45040;BME280;30778;53.574;7.770;2023-04-09T06:31:41;102683.16;;;6.98;52.22
45040;BME280;30778;53.574;7.770;2023-04-09T06:34:06;102690.03;;;6.88;51.99
45040;BME280;30778;53.574;7.770;2023-04-09T06:36:32;102692.69;;;6.99;51.71
45040;BME280;30778;53.574;7.770;2023-04-09T06:38:58;102690.94;;;6.96;51.76
45040;BME280;30778;53.574;7.770;2023-04-09T06:41:24;102689.22;;;7.03;51.51
45040;BME280;30778;53.574;7.770;2023-04-09T06:43:51;102687.44;;;6.93;51.41
45040;BME280;30778;53.574;7.770;2023-04-09T06:46:16;102686.69;;;7.14;50.83
45040;BME280;30778;53.574;7.770;2023-04-09T06:48:44;102689.28;;;7.20;50.66
45040;BME280;30778;53.574;7.770;2023-04-09T06:51:11;102690.13;;;7.14;50.37
45040;BME280;30778;53.574;7.770;2023-04-09T06:53:37;102690.19;;;7.29;50.03
45040;BME280;30778;53.574;7.770;2023-04-09T06:56:04;102689.34;;;7.40;50.05
45040;BME280;30778;53.574;7.770;2023-04-09T06:58:30;102695.34;;;7.17;50.00
45040;BME280;30778;53.574;7.770;2023-04-09T07:00:55;102692.78;;;7.31;49.40
45040;BME280;30778;53.574;7.770;2023-04-09T07:03:21;102694.47;;;7.12;49.33
45040;BME280;30778;53.574;7.770;2023-04-09T07:05:47;102693.69;;;7.50;48.91
45040;BME280;30778;53.574;7.770;2023-04-09T07:08:13;102692.88;;;7.57;48.39
45040;BME280;30778;53.574;7.770;2023-04-09T07:10:39;102692.03;;;7.61;48.29
45040;BME280;30778;53.574;7.770;2023-04-09T07:13:05;102695.50;;;7.82;47.19
45040;BME280;30778;53.574;7.770;2023-04-09T07:15:30;102699.81;;;7.61;47.69
45040;BME280;30778;53.574;7.770;2023-04-09T07:17:56;102705.94;;;7.79;46.89
45040;BME280;30778;53.574;7.770;2023-04-09T07:20:22;102704.19;;;7.93;46.51
45040;BME280;30778;53.574;7.770;2023-04-09T07:22:47;102703.31;;;8.23;45.87
45040;BME280;30778;53.574;7.770;2023-04-09T07:25:14;102708.56;;;8.09;45.20
45040;BME280;30778;53.574;7.770;2023-04-09T07:27:40;102707.66;;;8.20;44.81
45040;BME280;30778;53.574;7.770;2023-04-09T07:30:05;102714.59;;;8.38;44.83
45040;BME280;30778;53.574;7.770;2023-04-09T07:32:31;102709.41;;;8.19;44.63
45040;BME280;30778;53.574;7.770;2023-04-09T07:34:57;102702.47;;;8.17;44.53
45040;BME280;30778;53.574;7.770;2023-04-09T07:37:23;102710.25;;;8.26;43.34
45040;BME280;30778;53.574;7.770;2023-04-09T07:39:49;102704.19;;;7.98;43.42
45040;BME280;30778;53.574;7.770;2023-04-09T07:42:18;102701.56;;;7.87;43.10
45040;BME280;30778;53.574;7.770;2023-04-09T07:44:43;102700.72;;;7.91;43.06
45040;BME280;30778;53.574;7.770;2023-04-09T07:47:09;102709.41;;;8.05;42.57
45040;BME280;30778;53.574;7.770;2023-04-09T07:49:35;102714.50;;;7.41;43.82
45040;BME280;30778;53.574;7.770;2023-04-09T07:52:02;102705.91;;;7.68;43.37
45040;BME280;30778;53.574;7.770;2023-04-09T07:54:28;102710.28;;;7.97;43.26
45040;BME280;30778;53.574;7.770;2023-04-09T07:56:56;102716.31;;;8.37;42.72
45040;BME280;30778;53.574;7.770;2023-04-09T07:59:22;102714.59;;;8.39;42.09
45040;BME280;30778;53.574;7.770;2023-04-09T08:01:48;102716.34;;;8.34;41.88
45040;BME280;30778;53.574;7.770;2023-04-09T08:04:13;102718.91;;;8.46;41.82
45040;BME280;30778;53.574;7.770;2023-04-09T08:06:39;102714.59;;;8.30;41.49
45040;BME280;30778;53.574;7.770;2023-04-09T08:09:05;102719.81;;;8.08;42.23
45040;BME280;30778;53.574;7.770;2023-04-09T08:11:30;102717.22;;;8.16;42.82
45040;BME280;30778;53.574;7.770;2023-04-09T08:13:56;102723.31;;;8.27;42.65
45040;BME280;30778;53.574;7.770;2023-04-09T08:16:22;102717.19;;;8.38;41.98
45040;BME280;30778;53.574;7.770;2023-04-09T08:18:52;102719.81;;;8.33;42.12
45040;BME280;30778;53.574;7.770;2023-04-09T08:21:18;102724.16;;;8.19;42.31
45040;BME280;30778;53.574;7.770;2023-04-09T08:23:43;102718.06;;;8.13;42.46
45040;BME280;30778;53.574;7.770;2023-04-09T08:26:09;102718.06;;;8.29;42.57
45040;BME280;30778;53.574;7.770;2023-04-09T08:28:34;102714.63;;;8.21;42.46
45040;BME280;30778;53.574;7.770;2023-04-09T08:31:00;102721.56;;;8.08;42.17
45040;BME280;30778;53.574;7.770;2023-04-09T08:33:25;102716.34;;;7.97;42.02
45040;BME280;30778;53.574;7.770;2023-04-09T08:35:51;102726.72;;;8.40;41.19
45040;BME280;30778;53.574;7.770;2023-04-09T08:38:17;102725.00;;;8.42;41.74
45040;BME280;30778;53.574;7.770;2023-04-09T08:40:43;102718.97;;;8.14;41.49
45040;BME280;30778;53.574;7.770;2023-04-09T08:43:09;102722.44;;;8.16;41.85
45040;BME280;30778;53.574;7.770;2023-04-09T08:45:39;102712.88;;;8.13;42.29
45040;BME280;30778;53.574;7.770;2023-04-09T08:48:08;102719.81;;;8.45;42.10
45040;BME280;30778;53.574;7.770;2023-04-09T08:50:34;102719.78;;;8.42;41.51
45040;BME280;30778;53.574;7.770;2023-04-09T08:53:04;102712.00;;;8.39;41.63
45040;BME280;30778;53.574;7.770;2023-04-09T08:55:30;102722.41;;;8.42;41.85
45040;BME280;30778;53.574;7.770;2023-04-09T08:57:56;102712.00;;;8.08;41.83
45040;BME280;30778;53.574;7.770;2023-04-09T09:00:22;102715.41;;;8.81;42.02
45040;BME280;30778;53.574;7.770;2023-04-09T09:03:08;102706.72;;;8.65;41.56
45040;BME280;30778;53.574;7.770;2023-04-09T09:05:42;102712.84;;;8.47;41.53
45040;BME280;30778;53.574;7.770;2023-04-09T09:08:22;102708.41;;;8.89;41.65
45040;BME280;30778;53.574;7.770;2023-04-09T09:10:48;102707.59;;;8.81;40.87
45040;BME280;30778;53.574;7.770;2023-04-09T09:13:21;102695.38;;;8.89;40.46
45040;BME280;30778;53.574;7.770;2023-04-09T09:15:51;102707.59;;;8.75;41.02
45040;BME280;30778;53.574;7.770;2023-04-09T09:18:20;102696.22;;;8.97;40.60
45040;BME280;30778;53.574;7.770;2023-04-09T09:20:46;102700.66;;;8.57;41.17
45040;BME280;30778;53.574;7.770;2023-04-09T09:23:12;102703.22;;;8.69;40.97
45040;BME280;30778;53.574;7.770;2023-04-09T09:25:41;102702.28;;;9.00;40.82
45040;BME280;30778;53.574;7.770;2023-04-09T09:28:09;102707.50;;;9.00;40.98
45040;BME280;30778;53.574;7.770;2023-04-09T09:30:36;102705.75;;;9.08;40.58
45040;BME280;30778;53.574;7.770;2023-04-09T09:33:07;102706.38;;;9.47;40.06
45040;BME280;30778;53.574;7.770;2023-04-09T09:35:52;102704.75;;;9.30;40.03
45040;BME280;30778;53.574;7.770;2023-04-09T09:38:21;102702.25;;;9.03;40.30
45040;BME280;30778;53.574;7.770;2023-04-09T09:40:48;102689.28;;;8.89;41.00
45040;BME280;30778;53.574;7.770;2023-04-09T09:43:14;102698.91;;;8.79;40.87
45040;BME280;30778;53.574;7.770;2023-04-09T09:45:40;102691.84;;;9.03;40.40
45040;BME280;30778;53.574;7.770;2023-04-09T09:48:06;102696.94;;;9.27;40.43
45040;BME280;30778;53.574;7.770;2023-04-09T09:50:34;102696.78;;;9.55;40.14
45040;BME280;30778;53.574;7.770;2023-04-09T09:53:03;102691.63;;;9.44;40.49
45040;BME280;30778;53.574;7.770;2023-04-09T09:55:30;102688.09;;;9.53;40.01
45040;BME280;30778;53.574;7.770;2023-04-09T09:58:02;102682.47;;;10.07;38.70
45040;BME280;30778;53.574;7.770;2023-04-09T10:00:32;102683.69;;;10.60;37.70
45040;BME280;30778;53.574;7.770;2023-04-09T10:03:11;102683.31;;;10.92;37.07
45040;BME280;30778;53.574;7.770;2023-04-09T10:05:39;102679.47;;;11.19;36.47
45040;BME280;30778;53.574;7.770;2023-04-09T10:08:06;102683.97;;;11.10;36.96
45040;BME280;30778;53.574;7.770;2023-04-09T10:10:32;102682.13;;;11.16;35.75
45040;BME280;30778;53.574;7.770;2023-04-09T10:12:58;102681.66;;;10.85;36.68
45040;BME280;30778;53.574;7.770;2023-04-09T10:15:27;102678.47;;;11.28;35.59
45040;BME280;30778;53.574;7.770;2023-04-09T10:17:53;102676.56;;;11.97;35.08
45040;BME280;30778;53.574;7.770;2023-04-09T10:20:27;102676.06;;;12.24;34.10
45040;BME280;30778;53.574;7.770;2023-04-09T10:23:02;102666.91;;;12.00;35.41
45040;BME280;30778;53.574;7.770;2023-04-09T10:25:30;102671.69;;;11.72;35.48
45040;BME280;30778;53.574;7.770;2023-04-09T10:28:00;102662.66;;;12.41;34.12
45040;BME280;30778;53.574;7.770;2023-04-09T10:30:35;102659.75;;;12.08;34.39
45040;BME280;30778;53.574;7.770;2023-04-09T10:33:13;102660.47;;;12.18;34.97
45040;BME280;30778;53.574;7.770;2023-04-09T10:35:38;102644.00;;;12.55;34.19
45040;BME280;30778;53.574;7.770;2023-04-09T10:38:07;102641.94;;;12.73;34.52
45040;BME280;30778;53.574;7.770;2023-04-09T10:40:34;102640.53;;;12.98;33.09
45040;BME280;30778;53.574;7.770;2023-04-09T10:43:00;102635.50;;;13.26;33.11
45040;BME280;30778;53.574;7.770;2023-04-09T10:45:38;102637.69;;;13.07;33.87
45040;BME280;30778;53.574;7.770;2023-04-09T10:48:04;102641.00;;;13.53;32.44
45040;BME280;30778;53.574;7.770;2023-04-09T10:50:31;102641.41;;;12.97;33.16
45040;BME280;30778;53.574;7.770;2023-04-09T10:52:57;102642.00;;;13.10;33.36
45040;BME280;30778;53.574;7.770;2023-04-09T10:55:40;102629.38;;;12.87;33.85
45040;BME280;30778;53.574;7.770;2023-04-09T10:58:08;102628.97;;;12.20;34.14
45040;BME280;30778;53.574;7.770;2023-04-09T11:00:38;102625.47;;;12.19;35.17
45040;BME280;30778;53.574;7.770;2023-04-09T11:03:23;102617.25;;;12.81;34.74
45040;BME280;30778;53.574;7.770;2023-04-09T11:05:51;102618.56;;;12.15;34.22
45040;BME280;30778;53.574;7.770;2023-04-09T11:08:18;102614.06;;;12.65;34.48
45040;BME280;30778;53.574;7.770;2023-04-09T11:10:46;102604.44;;;13.44;32.88
45040;BME280;30778;53.574;7.770;2023-04-09T11:13:16;102601.34;;;13.64;31.98
45040;BME280;30778;53.574;7.770;2023-04-09T11:15:44;102608.06;;;13.74;32.00
45040;BME280;30778;53.574;7.770;2023-04-09T11:18:14;102599.34;;;13.73;32.53
45040;BME280;30778;53.574;7.770;2023-04-09T11:20:40;102595.44;;;13.88;32.43
45040;BME280;30778;53.574;7.770;2023-04-09T11:23:06;102587.88;;;13.76;32.22
45040;BME280;30778;53.574;7.770;2023-04-09T11:25:32;102593.00;;;13.46;32.33
45040;BME280;30778;53.574;7.770;2023-04-09T11:28:01;102581.53;;;13.13;33.18
45040;BME280;30778;53.574;7.770;2023-04-09T11:30:27;102590.09;;;12.84;34.42
45040;BME280;30778;53.574;7.770;2023-04-09T11:32:53;102591.53;;;12.55;34.90
45040;BME280;30778;53.574;7.770;2023-04-09T11:35:20;102592.03;;;12.32;35.93
45040;BME280;30778;53.574;7.770;2023-04-09T11:37:47;102597.00;;;12.44;34.99
45040;BME280;30778;53.574;7.770;2023-04-09T11:40:20;102590.13;;;13.20;35.19
45040;BME280;30778;53.574;7.770;2023-04-09T11:42:53;102592.06;;;13.11;33.45
45040;BME280;30778;53.574;7.770;2023-04-09T11:45:22;102597.03;;;13.25;34.33
45040;BME280;30778;53.574;7.770;2023-04-09T11:47:48;102595.03;;;12.98;34.18
45040;BME280;30778;53.574;7.770;2023-04-09T11:50:14;102596.06;;;12.48;34.71
45040;BME280;30778;53.574;7.770;2023-04-09T11:52:41;102592.25;;;13.05;34.40
45040;BME280;30778;53.574;7.770;2023-04-09T11:55:08;102592.75;;;13.57;33.63
45040;BME280;30778;53.574;7.770;2023-04-09T11:57:44;102588.34;;;13.59;32.86
45040;BME280;30778;53.574;7.770;2023-04-09T12:00:12;102585.34;;;14.37;31.92
45040;BME280;30778;53.574;7.770;2023-04-09T12:02:43;102574.22;;;14.27;32.99
45040;BME280;30778;53.574;7.770;2023-04-09T12:05:12;102573.66;;;14.16;33.07
45040;BME280;30778;53.574;7.770;2023-04-09T12:07:44;102578.56;;;14.88;32.25
45040;BME280;30778;53.574;7.770;2023-04-09T12:10:10;102574.69;;;15.28;30.54
45040;BME280;30778;53.574;7.770;2023-04-09T12:12:39;102585.53;;;13.98;32.21
45040;BME280;30778;53.574;7.770;2023-04-09T12:15:22;102575.59;;;14.41;32.38
45040;BME280;30778;53.574;7.770;2023-04-09T12:17:53;102573.59;;;14.79;31.53
45040;BME280;30778;53.574;7.770;2023-04-09T12:23:01;102566.28;;;15.68;30.31
45040;BME280;30778;53.574;7.770;2023-04-09T12:25:43;102573.34;;;15.43;29.87
45040;BME280;30778;53.574;7.770;2023-04-09T12:28:13;102575.78;;;15.49;30.24
45040;BME280;30778;53.574;7.770;2023-04-09T12:30:42;102570.31;;;15.00;30.46
45040;BME280;30778;53.574;7.770;2023-04-09T12:33:08;102567.53;;;14.47;31.19
45040;BME280;30778;53.574;7.770;2023-04-09T12:35:34;102562.09;;;14.81;31.44
45040;BME280;30778;53.574;7.770;2023-04-09T12:38:02;102563.06;;;14.79;30.96
45040;BME280;30778;53.574;7.770;2023-04-09T12:40:29;102553.91;;;15.18;31.74
45040;BME280;30778;53.574;7.770;2023-04-09T12:42:55;102560.50;;;15.58;29.68
45040;BME280;30778;53.574;7.770;2023-04-09T12:45:20;102555.34;;;15.01;30.02
45040;BME280;30778;53.574;7.770;2023-04-09T12:47:47;102557.31;;;14.94;30.90
45040;BME280;30778;53.574;7.770;2023-04-09T12:50:13;102560.19;;;15.41;29.96
45040;BME280;30778;53.574;7.770;2023-04-09T12:52:39;102555.91;;;14.84;31.10
45040;BME280;30778;53.574;7.770;2023-04-09T12:55:05;102545.16;;;15.45;30.64
45040;BME280;30778;53.574;7.770;2023-04-09T12:57:31;102549.53;;;16.43;28.26
45040;BME280;30778;53.574;7.770;2023-04-09T12:59:57;102545.94;;;16.22;28.65
45040;BME280;30778;53.574;7.770;2023-04-09T13:02:22;102547.47;;;15.79;29.64
45040;BME280;30778;53.574;7.770;2023-04-09T13:04:49;102542.03;;;15.33;29.80
45040;BME280;30778;53.574;7.770;2023-04-09T13:07:15;102533.19;;;15.08;29.98
45040;BME280;30778;53.574;7.770;2023-04-09T13:09:43;102530.91;;;14.69;31.10
45040;BME280;30778;53.574;7.770;2023-04-09T13:12:09;102526.84;;;14.87;31.16
45040;BME280;30778;53.574;7.770;2023-04-09T13:14:38;102519.84;;;14.59;31.32
45040;BME280;30778;53.574;7.770;2023-04-09T13:17:04;102530.59;;;14.50;31.71